Time;durP1;ratioP1;P1;durP2;ratioP2;P2;SDS_P1;SDS_P2;PMS_P1;PMS_P2;Temp;Humidity;BMP_temperature;BMP_pressure;BME280_temperature;BME280_humidity;BME280_pressure;Samples;Min_cycle;Max_cycle;Signal;HPM_P1;HPM_P2
2023/08/11 00:00:40;;;;;;;;;;;;;;;25.80;47.56;97287.56;4218552;28;5827;-66
2023/08/11 00:02:43;;;;;;;;;;;;;;;25.79;47.40;97280.53;4218432;28;5202;-68
2023/08/11 00:04:45;;;;;;;;;;;;;;;25.79;47.71;97280.53;4218472;28;5813;-65
2023/08/11 00:06:48;;;;;;;;;;;;;;;25.78;47.34;97279.72;4211364;28;6619;-64
2023/08/11 00:08:52;;;;;;;;;;;;;;;25.78;47.40;97282.44;4217761;28;5672;-64
2023/08/11 00:10:57;;;;;;;;;;;;;;;25.77;47.47;97277.28;4217997;28;5912;-64
2023/08/11 00:13:00;;;;;;;;;;;;;;;25.78;47.24;97285.13;4218362;28;5700;-63
2023/08/11 00:15:03;;;;;;;;;;;;;;;25.78;47.30;97293.25;4218494;28;5689;-64
2023/08/11 00:17:06;;;;;;;;;;;;;;;25.77;47.18;97290.84;4212428;28;5673;-64
2023/08/11 00:19:10;;;;;;;;;;;;;;;25.77;47.46;97293.53;4216037;28;5803;-64
2023/08/11 00:21:13;;;;;;;;;;;;;;;25.76;47.18;97294.63;4212841;28;5789;-64
2023/08/11 00:23:16;;;;;;;;;;;;;;;25.74;47.23;97300.31;4213760;28;5628;-64
2023/08/11 00:25:19;;;;;;;;;;;;;;;25.74;47.14;97303.03;4217981;28;5662;-64
2023/08/11 00:27:22;;;;;;;;;;;;;;;25.72;47.39;97301.69;4218071;28;5819;-64
2023/08/11 00:29:25;;;;;;;;;;;;;;;25.72;47.16;97304.41;4214486;28;5807;-64
2023/08/11 00:31:28;;;;;;;;;;;;;;;25.71;47.18;97310.88;4212827;28;5284;-63
2023/08/11 00:33:31;;;;;;;;;;;;;;;25.70;47.11;97315.50;4214236;28;5682;-64
2023/08/11 00:35:34;;;;;;;;;;;;;;;25.70;47.55;97314.69;4213507;28;5662;-64
2023/08/11 00:37:37;;;;;;;;;;;;;;;25.68;47.13;97309.53;4218193;28;5684;-63
2023/08/11 00:39:39;;;;;;;;;;;;;;;25.67;47.43;97317.94;4218213;28;5759;-63
2023/08/11 00:41:41;;;;;;;;;;;;;;;25.65;47.45;97311.97;4217983;28;5673;-64
2023/08/11 00:43:46;;;;;;;;;;;;;;;25.66;47.33;97324.44;4217993;28;5676;-63
2023/08/11 00:45:50;;;;;;;;;;;;;;;25.65;47.07;97325.53;4218259;28;5768;-64
2023/08/11 00:47:53;;;;;;;;;;;;;;;25.65;47.50;97322.81;4217311;28;5689;-64
2023/08/11 00:49:57;;;;;;;;;;;;;;;25.63;47.31;97314.16;4217862;28;5664;-64
2023/08/11 00:52:00;;;;;;;;;;;;;;;25.60;47.31;97317.44;4217978;28;5729;-64
2023/08/11 00:54:06;;;;;;;;;;;;;;;25.63;46.98;97314.97;4218060;28;7138;-64
2023/08/11 00:56:09;;;;;;;;;;;;;;;25.63;47.10;97319.56;4210155;28;5693;-64
2023/08/11 00:58:11;;;;;;;;;;;;;;;25.61;47.50;97322.56;4217663;28;5749;-64
2023/08/11 01:00:16;;;;;;;;;;;;;;;25.58;47.19;97317.69;4217926;28;5790;-63
2023/08/11 01:02:19;;;;;;;;;;;;;;;25.59;47.15;97318.50;4217809;28;5662;-64
2023/08/11 01:04:22;;;;;;;;;;;;;;;25.59;47.48;97321.19;4218004;28;5764;-64
2023/08/11 01:06:41;;;;;;;;;;;;;;;25.61;47.14;97322.56;4217793;28;5680;-64
2023/08/11 01:08:50;;;;;;;;;;;;;;;25.60;47.05;97322.84;4217919;28;5772;-64
2023/08/11 01:11:01;;;;;;;;;;;;;;;25.61;47.33;97325.28;4209107;28;6366;-64
2023/08/11 01:13:12;;;;;;;;;;;;;;;25.59;47.72;97323.91;4208959;28;5673;-64
2023/08/11 01:15:22;;;;;;;;;;;;;;;25.58;47.78;97330.41;4217949;28;5673;-64
2023/08/11 01:17:27;;;;;;;;;;;;;;;25.57;47.55;97331.50;4217686;28;5681;-64
2023/08/11 01:19:33;;;;;;;;;;;;;;;25.57;47.56;97342.31;4217622;28;5678;-64
2023/08/11 01:21:41;;;;;;;;;;;;;;;25.53;47.65;97332.06;4203913;28;5826;-64
2023/08/11 01:23:45;;;;;;;;;;;;;;;25.50;48.04;97335.31;4206582;28;5838;-64
2023/08/11 01:25:49;;;;;;;;;;;;;;;25.51;47.75;97342.34;4217793;28;5776;-64
2023/08/11 01:27:56;;;;;;;;;;;;;;;25.51;47.93;97344.25;4217639;28;5661;-64
2023/08/11 01:29:59;;;;;;;;;;;;;;;25.51;48.21;97339.66;4217461;28;5757;-64
2023/08/11 01:32:01;;;;;;;;;;;;;;;25.52;48.07;97338.56;4217519;28;5661;-64
2023/08/11 01:34:05;;;;;;;;;;;;;;;25.50;48.47;97340.72;4217542;28;5665;-64
2023/08/11 01:36:09;;;;;;;;;;;;;;;25.49;48.50;97336.41;4209431;28;5669;-64
2023/08/11 01:38:12;;;;;;;;;;;;;;;25.48;48.33;97340.22;4217357;28;5676;-64
2023/08/11 01:40:17;;;;;;;;;;;;;;;25.48;48.91;97340.22;4217595;28;5812;-64
2023/08/11 01:42:19;;;;;;;;;;;;;;;25.49;49.06;97335.59;4217401;28;5692;-65
2023/08/11 01:44:24;;;;;;;;;;;;;;;25.48;48.73;97345.63;4217085;28;5799;-64
2023/08/11 01:46:29;;;;;;;;;;;;;;;25.47;48.91;97338.56;4217500;28;5661;-64
2023/08/11 01:48:33;;;;;;;;;;;;;;;25.48;49.20;97342.91;4217367;28;5661;-64
2023/08/11 01:50:37;;;;;;;;;;;;;;;25.47;49.42;97351.28;4216842;28;7692;-64
2023/08/11 01:52:41;;;;;;;;;;;;;;;25.46;49.25;97347.75;4217282;28;7720;-64
2023/08/11 01:54:44;;;;;;;;;;;;;;;25.46;49.44;97346.97;4217389;28;5672;-64
2023/08/11 01:56:49;;;;;;;;;;;;;;;25.42;49.65;97352.13;4217628;28;5665;-63
2023/08/11 01:58:53;;;;;;;;;;;;;;;25.39;49.69;97352.69;4200926;28;5718;-63
2023/08/11 02:00:56;;;;;;;;;;;;;;;25.38;49.86;97350.25;4215885;28;5664;-63
2023/08/11 02:02:59;;;;;;;;;;;;;;;25.37;49.56;97352.16;4217394;28;5701;-63
2023/08/11 02:05:01;;;;;;;;;;;;;;;25.36;49.83;97358.63;4217484;28;5740;-64
2023/08/11 02:07:04;;;;;;;;;;;;;;;25.32;50.03;97357.56;4217258;28;5823;-63
2023/08/11 02:09:09;;;;;;;;;;;;;;;25.34;50.18;97359.97;4211653;28;6440;-63
2023/08/11 02:11:12;;;;;;;;;;;;;;;25.34;49.89;97359.97;4216847;28;5770;-63
2023/08/11 02:13:16;;;;;;;;;;;;;;;25.34;50.08;97366.19;4217028;28;6387;-64
2023/08/11 02:15:19;;;;;;;;;;;;;;;25.34;49.84;97366.19;4216993;28;5680;-63
2023/08/11 02:17:22;;;;;;;;;;;;;;;25.35;49.77;97357.00;4217308;28;5705;-64
2023/08/11 02:19:25;;;;;;;;;;;;;;;25.38;50.00;97364.59;4217292;28;5665;-63
2023/08/11 02:21:29;;;;;;;;;;;;;;;25.39;49.60;97366.22;4217291;28;5692;-64
2023/08/11 02:23:32;;;;;;;;;;;;;;;25.40;49.68;97370.53;4217028;28;5822;-63
2023/08/11 02:25:35;;;;;;;;;;;;;;;25.40;49.90;97367.81;4220077;28;5688;-63
2023/08/11 02:27:37;;;;;;;;;;;;;;;25.41;49.95;97364.03;4220200;28;5672;-63
2023/08/11 02:29:41;;;;;;;;;;;;;;;25.39;49.72;97368.91;4220080;28;5787;-63
2023/08/11 02:31:44;;;;;;;;;;;;;;;25.38;49.64;97364.59;4220237;28;5661;-63
2023/08/11 02:33:47;;;;;;;;;;;;;;;25.37;49.72;97373.78;4220366;28;5664;-63
2023/08/11 02:35:50;;;;;;;;;;;;;;;25.38;49.67;97361.88;4220243;28;5774;-63
2023/08/11 02:37:53;;;;;;;;;;;;;;;25.38;49.82;97367.28;4220212;28;5672;-63
2023/08/11 02:39:56;;;;;;;;;;;;;;;25.36;49.46;97358.63;4220207;28;5668;-63
2023/08/11 02:41:59;;;;;;;;;;;;;;;25.37;49.95;97362.13;4219812;28;5708;-63
2023/08/11 02:44:02;;;;;;;;;;;;;;;25.36;49.62;97365.94;4219797;28;5701;-64
2023/08/11 02:46:07;;;;;;;;;;;;;;;25.34;49.53;97358.09;4219935;28;5688;-64
2023/08/11 02:48:10;;;;;;;;;;;;;;;25.35;49.62;97358.91;4204017;28;5727;-64
2023/08/11 02:50:13;;;;;;;;;;;;;;;25.33;49.62;97353.75;4219974;28;5759;-64
2023/08/11 02:52:16;;;;;;;;;;;;;;;25.33;49.83;97353.75;4219587;28;5673;-64
2023/08/11 02:54:20;;;;;;;;;;;;;;;25.32;49.96;97354.03;4219997;28;5772;-63
2023/08/11 02:56:23;;;;;;;;;;;;;;;25.31;49.80;97355.13;4219829;28;5673;-64
2023/08/11 02:58:26;;;;;;;;;;;;;;;25.31;50.14;97358.63;4219574;28;5662;-64
2023/08/11 03:00:29;;;;;;;;;;;;;;;25.31;50.29;97361.34;4219816;28;5779;-64
2023/08/11 03:02:33;;;;;;;;;;;;;;;25.31;50.23;97349.72;4219856;28;5097;-64
2023/08/11 03:04:37;;;;;;;;;;;;;;;25.31;50.24;97355.13;4220002;28;5755;-64
2023/08/11 03:06:40;;;;;;;;;;;;;;;25.29;50.57;97352.69;4220127;28;5768;-64
2023/08/11 03:08:43;;;;;;;;;;;;;;;25.30;50.32;97358.91;4219925;28;5731;-64
2023/08/11 03:10:45;;;;;;;;;;;;;;;25.29;50.48;97357.28;4220050;28;5669;-65
2023/08/11 03:12:58;;;;;;;;;;;;;;;25.28;50.61;97353.78;4219786;28;5763;-64
2023/08/11 03:15:02;;;;;;;;;;;;;;;25.25;50.63;97357.00;4219711;28;5673;-64
2023/08/11 03:17:06;;;;;;;;;;;;;;;25.23;50.89;97353.78;4214966;28;5701;-64
2023/08/11 03:19:11;;;;;;;;;;;;;;;25.22;50.88;97355.66;4219762;28;5669;-64
2023/08/11 03:21:14;;;;;;;;;;;;;;;25.22;51.03;97357.56;4218552;28;5117;-64
2023/08/11 03:23:22;;;;;;;;;;;;;;;25.22;50.97;97357.56;4216777;28;5792;-66
2023/08/11 03:25:25;;;;;;;;;;;;;;;25.23;51.31;97359.19;4208115;28;5814;-64
2023/08/11 03:27:28;;;;;;;;;;;;;;;25.22;51.37;97357.56;4215720;28;5672;-64
2023/08/11 03:29:31;;;;;;;;;;;;;;;25.21;51.08;97361.34;4212530;28;5692;-64
2023/08/11 03:31:34;;;;;;;;;;;;;;;25.20;51.40;97360.56;4211133;28;5665;-65
2023/08/11 03:33:37;;;;;;;;;;;;;;;25.19;51.67;97368.94;4215299;28;5670;-72
2023/08/11 03:35:41;;;;;;;;;;;;;;;25.19;51.28;97360.81;4219072;28;5678;-69
2023/08/11 03:37:45;;;;;;;;;;;;;;;25.17;51.64;97365.72;4219260;28;6398;-73
2023/08/11 03:39:46;;;;;;;;;;;;;;;25.17;51.30;97371.13;4219153;28;5669;-71
2023/08/11 03:41:50;;;;;;;;;;;;;;;25.14;51.63;97369.78;4219185;28;5823;-75
2023/08/11 03:43:53;;;;;;;;;;;;;;;25.13;51.31;97378.94;4218943;28;5775;-68
2023/08/11 03:45:56;;;;;;;;;;;;;;;25.11;51.37;97373.00;4219059;28;5760;-66
2023/08/11 03:47:59;;;;;;;;;;;;;;;25.09;51.41;97374.38;4219262;28;6901;-69
2023/08/11 03:50:01;;;;;;;;;;;;;;;25.07;51.77;97368.41;4218969;28;6358;-72
2023/08/11 03:52:06;;;;;;;;;;;;;;;25.01;51.55;97367.59;4218740;28;5811;-65
2023/08/11 03:54:10;;;;;;;;;;;;;;;25.00;51.47;97370.53;4219116;28;5784;-64
2023/08/11 03:56:13;;;;;;;;;;;;;;;24.95;52.04;97369.47;4214154;28;5698;-72
2023/08/11 03:58:16;;;;;;;;;;;;;;;24.90;52.26;97374.88;4214075;28;5872;-70
2023/08/11 04:00:19;;;;;;;;;;;;;;;24.87;52.03;97370.00;4218184;28;5677;-74
2023/08/11 04:02:23;;;;;;;;;;;;;;;24.86;52.59;97368.38;4218901;28;5661;-72
2023/08/11 04:04:26;;;;;;;;;;;;;;;24.83;52.37;97366.25;4214341;28;5726;-69
2023/08/11 04:06:32;;;;;;;;;;;;;;;24.81;52.44;97368.41;4214059;28;5677;-72
2023/08/11 04:08:37;;;;;;;;;;;;;;;24.81;52.58;97363.00;4218811;28;6346;-68
2023/08/11 04:10:40;;;;;;;;;;;;;;;24.82;52.87;97371.91;4218872;28;5791;-74
2023/08/11 04:13:03;;;;;;;;;;;;;;;24.82;52.97;97371.91;4218311;28;5776;-69
2023/08/11 04:15:15;;;;;;;;;;;;;;;24.81;53.01;97367.59;4218345;28;5661;-74
2023/08/11 04:17:18;;;;;;;;;;;;;;;24.81;52.76;97368.41;4218780;28;5692;-75
2023/08/11 04:19:21;;;;;;;;;;;;;;;24.81;53.09;97379.22;4218514;28;5676;-71
2023/08/11 04:21:24;;;;;;;;;;;;;;;24.83;53.06;97368.94;4218467;28;5686;-67
2023/08/11 04:23:27;;;;;;;;;;;;;;;24.86;52.84;97364.88;4218176;28;6519;-71
2023/08/11 04:25:31;;;;;;;;;;;;;;;24.89;52.87;97369.75;4218374;28;5661;-70
2023/08/11 04:27:34;;;;;;;;;;;;;;;24.91;53.08;97372.97;4218501;28;5764;-70
2023/08/11 04:29:37;;;;;;;;;;;;;;;24.93;52.72;97377.06;4218289;28;5766;-71
2023/08/11 04:31:40;;;;;;;;;;;;;;;24.95;53.01;97380.28;4216622;28;6533;-76
2023/08/11 04:33:43;;;;;;;;;;;;;;;24.94;52.73;97377.88;4218071;28;5684;-69
2023/08/11 04:35:46;;;;;;;;;;;;;;;24.96;53.13;97376.50;4215172;28;5698;-74
2023/08/11 04:37:49;;;;;;;;;;;;;;;24.97;52.85;97382.72;4213996;28;5868;-69
2023/08/11 04:39:51;;;;;;;;;;;;;;;24.98;53.07;97385.16;4209142;28;5125;-67
2023/08/11 04:41:56;;;;;;;;;;;;;;;24.99;52.74;97388.66;4210964;28;5892;-71
2023/08/11 04:43:59;;;;;;;;;;;;;;;25.00;52.94;97390.28;4212140;28;5701;-75
2023/08/11 04:46:03;;;;;;;;;;;;;;;25.01;53.26;97393.81;4218288;28;5779;-69
2023/08/11 04:48:06;;;;;;;;;;;;;;;25.01;53.30;97388.41;4205343;28;5742;-74
2023/08/11 04:50:11;;;;;;;;;;;;;;;24.98;53.05;97395.97;4210171;28;5676;-76
2023/08/11 04:52:14;;;;;;;;;;;;;;;24.97;53.12;97391.66;4217558;28;5739;-68
2023/08/11 04:54:17;;;;;;;;;;;;;;;24.96;53.05;97386.50;4217866;28;5689;-69
2023/08/11 04:56:20;;;;;;;;;;;;;;;24.95;53.02;97383.00;4207539;28;5921;-72
2023/08/11 04:58:25;;;;;;;;;;;;;;;24.95;53.07;97385.69;4217743;28;5673;-74
2023/08/11 05:00:27;;;;;;;;;;;;;;;24.94;53.42;97385.97;4217924;28;5673;-70
2023/08/11 05:02:30;;;;;;;;;;;;;;;24.92;53.59;97386.25;4215772;28;5764;-69
2023/08/11 05:04:34;;;;;;;;;;;;;;;24.93;53.67;97390.56;4213631;28;5657;-73
2023/08/11 05:06:37;;;;;;;;;;;;;;;24.93;53.66;97387.06;4217939;28;5668;-77
2023/08/11 05:08:40;;;;;;;;;;;;;;;24.96;53.48;97400.03;4217826;28;5689;-75
2023/08/11 05:10:43;;;;;;;;;;;;;;;24.94;53.67;97403.00;4216929;28;5823;-71
2023/08/11 05:12:46;;;;;;;;;;;;;;;24.95;53.66;97407.34;4211377;28;5860;-68
2023/08/11 05:14:51;;;;;;;;;;;;;;;24.93;53.25;97414.91;4214729;28;5694;-73
2023/08/11 05:16:54;;;;;;;;;;;;;;;24.93;53.43;97414.09;4217732;28;5768;-74
2023/08/11 05:18:57;;;;;;;;;;;;;;;24.93;53.29;97412.22;4217627;28;5698;-66
2023/08/11 05:21:00;;;;;;;;;;;;;;;24.94;53.41;97411.13;4217596;28;5697;-70
2023/08/11 05:23:03;;;;;;;;;;;;;;;24.94;53.39;97411.13;4211330;28;5777;-72
2023/08/11 05:25:08;;;;;;;;;;;;;;;24.95;53.14;97412.75;4215316;28;5666;-74
2023/08/11 05:27:11;;;;;;;;;;;;;;;24.95;53.53;97415.47;4209306;28;5774;-65
2023/08/11 05:29:15;;;;;;;;;;;;;;;24.94;53.17;97416.53;4211416;28;5616;-75
2023/08/11 05:31:19;;;;;;;;;;;;;;;24.95;53.61;97418.16;4211624;28;5775;-73
2023/08/11 05:33:22;;;;;;;;;;;;;;;24.96;53.24;97418.97;4212343;28;5669;-65
2023/08/11 05:35:26;;;;;;;;;;;;;;;24.96;53.53;97424.38;4207300;28;5919;-69
2023/08/11 05:37:29;;;;;;;;;;;;;;;24.96;53.27;97425.19;4209536;28;5839;-73
2023/08/11 05:39:32;;;;;;;;;;;;;;;24.96;53.26;97425.19;4215683;28;5669;-69
2023/08/11 05:41:35;;;;;;;;;;;;;;;24.98;53.55;97427.63;4203760;28;5681;-68
2023/08/11 05:43:38;;;;;;;;;;;;;;;24.97;53.27;97420.59;4208498;28;6420;-69
2023/08/11 05:45:41;;;;;;;;;;;;;;;24.98;53.47;97428.44;4207264;28;5850;-73
2023/08/11 05:47:46;;;;;;;;;;;;;;;24.98;53.63;97427.63;4207929;28;6530;-76
2023/08/11 05:49:49;;;;;;;;;;;;;;;24.98;53.40;97425.72;4199859;28;5686;-70
2023/08/11 05:51:52;;;;;;;;;;;;;;;25.00;53.49;97427.34;4200505;28;5666;-70
2023/08/11 05:53:55;;;;;;;;;;;;;;;24.99;53.73;97431.94;4200520;28;6483;-75
2023/08/11 05:55:58;;;;;;;;;;;;;;;25.01;53.90;97434.38;4200732;28;5682;-75
2023/08/11 05:58:01;;;;;;;;;;;;;;;25.02;53.93;97436.03;4201170;28;5706;-71
2023/08/11 06:00:05;;;;;;;;;;;;;;;25.03;53.61;97440.34;4204049;28;5071;-66
2023/08/11 06:02:08;;;;;;;;;;;;;;;25.06;54.03;97437.94;4204173;28;5686;-74
2023/08/11 06:04:12;;;;;;;;;;;;;;;25.09;53.47;97445.50;4204102;28;5714;-73
2023/08/11 06:06:16;;;;;;;;;;;;;;;25.12;53.88;97444.97;4204012;28;5698;-68
2023/08/11 06:08:19;;;;;;;;;;;;;;;25.18;53.95;97440.38;4204179;28;5067;-64
2023/08/11 06:10:22;;;;;;;;;;;;;;;25.22;53.65;97450.38;4203920;28;5710;-71
2023/08/11 06:12:25;;;;;;;;;;;;;;;25.25;53.83;97443.59;4203750;28;5722;-70
2023/08/11 06:14:28;;;;;;;;;;;;;;;25.30;53.34;97449.03;4203776;28;5811;-69
2023/08/11 06:16:31;;;;;;;;;;;;;;;25.34;53.44;97446.56;4207508;28;5670;-68
2023/08/11 06:18:34;;;;;;;;;;;;;;;25.36;53.21;97447.94;4220742;28;5665;-68
2023/08/11 06:20:39;;;;;;;;;;;;;;;25.40;53.39;97451.72;4220730;28;5665;-75
2023/08/11 06:22:44;;;;;;;;;;;;;;;25.41;53.37;97449.84;4220657;28;5771;-67
2023/08/11 06:24:47;;;;;;;;;;;;;;;25.44;53.28;97449.28;4220471;28;5701;-75
2023/08/11 06:26:51;;;;;;;;;;;;;;;25.46;53.22;97450.63;4220535;28;5752;-75
2023/08/11 06:28:54;;;;;;;;;;;;;;;25.48;53.57;97459.31;4220228;28;5798;-69
2023/08/11 06:30:57;;;;;;;;;;;;;;;25.51;53.38;97452.53;4220416;28;5085;-65
2023/08/11 06:33:02;;;;;;;;;;;;;;;25.53;53.39;97453.06;4220321;28;5765;-71
2023/08/11 06:35:06;;;;;;;;;;;;;;;25.53;53.27;97445.75;4220284;28;5674;-69
2023/08/11 06:37:10;;;;;;;;;;;;;;;25.53;53.01;97445.75;4220420;28;5665;-69
2023/08/11 06:39:13;;;;;;;;;;;;;;;25.53;53.06;97443.03;4220322;28;5697;-71
2023/08/11 06:41:16;;;;;;;;;;;;;;;25.54;52.89;97447.38;4220263;28;5761;-75
2023/08/11 06:43:19;;;;;;;;;;;;;;;25.54;53.22;97447.38;4220320;28;5666;-75
2023/08/11 06:45:22;;;;;;;;;;;;;;;25.54;52.91;97450.06;4219924;28;5670;-66
2023/08/11 06:47:25;;;;;;;;;;;;;;;25.54;53.10;97446.56;4220221;28;5752;-69
2023/08/11 06:49:28;;;;;;;;;;;;;;;25.54;52.86;97446.56;4220149;28;5723;-70
2023/08/11 06:51:31;;;;;;;;;;;;;;;25.56;52.63;97452.50;4219840;28;7769;-74
2023/08/11 06:53:35;;;;;;;;;;;;;;;25.55;52.67;97445.47;4220328;28;5664;-74
2023/08/11 06:55:38;;;;;;;;;;;;;;;25.57;52.62;97445.19;4220258;28;5661;-67
2023/08/11 06:57:41;;;;;;;;;;;;;;;25.54;52.68;97450.06;4220001;28;5701;-71
2023/08/11 06:59:44;;;;;;;;;;;;;;;25.52;52.34;97448.72;4219858;28;5759;-73
2023/08/11 07:01:47;;;;;;;;;;;;;;;25.49;52.42;97444.69;4220082;28;6486;-76
2023/08/11 07:03:51;;;;;;;;;;;;;;;25.50;52.36;97450.91;4219941;28;5676;-65
2023/08/11 07:05:53;;;;;;;;;;;;;;;25.48;52.31;97458.47;4219738;28;5764;-72
2023/08/11 07:07:56;;;;;;;;;;;;;;;25.45;52.48;97459.81;4219975;28;5666;-71
2023/08/11 07:10:00;;;;;;;;;;;;;;;25.44;52.55;97451.97;4218968;28;5737;-75
2023/08/11 07:12:06;;;;;;;;;;;;;;;25.44;52.25;97457.41;4219686;28;5829;-73
2023/08/11 07:14:09;;;;;;;;;;;;;;;25.46;52.17;97456.03;4219447;28;5681;-71
2023/08/11 07:16:12;;;;;;;;;;;;;;;25.46;52.24;97456.03;4219961;28;5681;-75
2023/08/11 07:18:15;;;;;;;;;;;;;;;25.45;52.46;97459.81;4219714;28;5666;-72
2023/08/11 07:20:18;;;;;;;;;;;;;;;25.44;52.49;97458.22;4218278;28;5727;-64
2023/08/11 07:22:21;;;;;;;;;;;;;;;25.44;52.27;97458.22;4218847;28;5676;-70
2023/08/11 07:24:24;;;;;;;;;;;;;;;25.42;52.35;97454.97;4219108;28;5763;-70
2023/08/11 07:26:28;;;;;;;;;;;;;;;25.42;52.79;97463.09;4219120;28;5807;-71
2023/08/11 07:28:31;;;;;;;;;;;;;;;25.40;52.62;97462.56;4219219;28;5681;-69
2023/08/11 07:30:33;;;;;;;;;;;;;;;25.39;52.51;97454.72;4215817;28;5706;-68
2023/08/11 07:32:35;;;;;;;;;;;;;;;25.39;53.01;97454.72;4206715;28;5666;-69
2023/08/11 07:34:39;;;;;;;;;;;;;;;25.39;52.96;97449.28;4219101;28;5673;-74
2023/08/11 07:36:43;;;;;;;;;;;;;;;25.40;52.66;97456.31;4219061;28;5673;-73
2023/08/11 07:38:46;;;;;;;;;;;;;;;25.40;52.95;97457.13;4218911;28;5680;-68
2023/08/11 07:40:49;;;;;;;;;;;;;;;25.41;52.94;97458.75;4212224;28;6471;-68
2023/08/11 09:43:48;;;;;;;;;;;;;;;24.20;56.82;97440.41;4214134;27;10294;-69
2023/08/11 09:45:52;;;;;;;;;;;;;;;24.48;56.11;97434.59;4214874;28;5694;-69
2023/08/11 09:47:55;;;;;;;;;;;;;;;24.71;55.85;97438.69;4206666;28;5803;-68
2023/08/11 09:49:59;;;;;;;;;;;;;;;24.88;55.70;97438.44;4213562;28;5698;-69
2023/08/11 09:52:04;;;;;;;;;;;;;;;25.03;54.88;97441.19;4214960;28;5780;-68
2023/08/11 09:54:09;;;;;;;;;;;;;;;25.15;54.41;97439.03;4213502;28;5697;-69
2023/08/11 09:56:16;;;;;;;;;;;;;;;25.24;54.34;97436.56;4212482;28;6419;-69
2023/08/11 09:58:24;;;;;;;;;;;;;;;25.31;54.00;97439.81;4214690;28;6467;-69
2023/08/11 10:00:28;;;;;;;;;;;;;;;25.36;53.04;97433.59;4214780;28;5788;-68
2023/08/11 10:02:33;;;;;;;;;;;;;;;25.40;52.51;97432.78;4214419;28;5860;-69
2023/08/11 10:04:42;;;;;;;;;;;;;;;25.46;51.75;97417.34;4212483;28;5685;-69
2023/08/11 10:06:50;;;;;;;;;;;;;;;25.49;51.41;97425.75;4202629;28;5897;-69
2023/08/11 10:08:58;;;;;;;;;;;;;;;25.54;51.74;97422.19;4216144;28;6591;-70
2023/08/11 10:11:03;;;;;;;;;;;;;;;25.59;51.33;97421.38;4214463;28;5689;-69
2023/08/11 10:13:08;;;;;;;;;;;;;;;25.63;50.04;97417.03;4213956;28;5689;-69
2023/08/11 10:15:12;;;;;;;;;;;;;;;25.66;50.38;97421.91;4211411;28;6582;-69
2023/08/11 10:17:16;;;;;;;;;;;;;;;25.68;50.23;97415.13;4206666;28;5854;-70
2023/08/11 10:19:21;;;;;;;;;;;;;;;25.71;50.11;97416.50;4203684;28;5831;-69
2023/08/11 10:21:25;;;;;;;;;;;;;;;25.74;49.89;97413.25;4209511;28;5705;-71
2023/08/11 10:23:29;;;;;;;;;;;;;;;25.77;49.73;97410.00;4209286;28;5924;-73
2023/08/11 10:25:33;;;;;;;;;;;;;;;25.79;49.66;97421.34;4207572;28;5697;-70
2023/08/11 10:27:38;;;;;;;;;;;;;;;25.82;49.73;97415.38;4209139;28;5678;-73
2023/08/11 10:29:45;;;;;;;;;;;;;;;25.83;49.72;97417.03;4212941;28;5717;-71
2023/08/11 10:31:55;;;;;;;;;;;;;;;25.84;49.45;97418.63;4212541;28;5877;-64
2023/08/11 10:34:05;;;;;;;;;;;;;;;25.88;49.50;97427.00;4209853;28;5719;-73
2023/08/11 10:36:08;;;;;;;;;;;;;;;25.90;49.31;97428.34;4212899;28;5690;-72
2023/08/11 10:38:10;;;;;;;;;;;;;;;25.91;48.92;97419.13;4212300;28;5705;-72
2023/08/11 10:40:13;;;;;;;;;;;;;;;25.92;49.13;97422.66;4213242;28;5851;-68
2023/08/11 10:42:16;;;;;;;;;;;;;;;25.94;49.04;97423.22;4217833;28;5646;-67
2023/08/11 10:44:20;;;;;;;;;;;;;;;25.92;48.93;97414.53;4221557;28;5680;-73
2023/08/11 10:46:23;;;;;;;;;;;;;;;25.94;48.61;97406.97;4219340;28;5808;-74
2023/08/11 10:48:26;;;;;;;;;;;;;;;25.95;48.46;97414.81;4218092;28;6320;-71
2023/08/11 10:50:31;;;;;;;;;;;;;;;25.97;48.46;97412.63;4218411;28;5672;-69
2023/08/11 10:52:35;;;;;;;;;;;;;;;25.99;48.60;97404.22;4217368;28;6424;-70
2023/08/11 10:54:38;;;;;;;;;;;;;;;25.99;48.51;97402.31;4217898;28;5751;-68
2023/08/11 10:56:42;;;;;;;;;;;;;;;25.99;48.39;97399.63;4210336;28;5613;-64
2023/08/11 10:58:44;;;;;;;;;;;;;;;26.01;48.23;97400.13;4208964;28;5545;-69
2023/08/11 11:00:47;;;;;;;;;;;;;;;26.02;48.51;97401.75;4215206;28;5619;-70
2023/08/11 11:02:50;;;;;;;;;;;;;;;26.03;48.29;97387.13;4213343;28;5629;-70
2023/08/11 11:04:54;;;;;;;;;;;;;;;26.03;48.00;97392.53;4218150;28;5615;-67
2023/08/11 11:06:59;;;;;;;;;;;;;;;26.05;48.24;97393.09;4224977;28;5605;-83
2023/08/11 11:09:03;;;;;;;;;;;;;;;26.06;48.19;97400.13;4212341;28;5644;-78
2023/08/11 11:11:07;;;;;;;;;;;;;;;26.07;48.14;97396.34;4209859;28;5629;-77
2023/08/11 11:13:10;;;;;;;;;;;;;;;26.08;47.67;97384.41;4215829;28;5789;-79
2023/08/11 11:15:13;;;;;;;;;;;;;;;26.10;47.64;97384.94;4219543;28;5638;-76
2023/08/11 11:17:17;;;;;;;;;;;;;;;26.10;47.77;97382.22;4205384;28;5723;-74
2023/08/11 11:19:22;;;;;;;;;;;;;;;26.11;47.77;97383.84;4204966;28;5710;-79
2023/08/11 11:21:25;;;;;;;;;;;;;;;26.11;47.79;97378.41;4202058;28;5750;-74
2023/08/11 11:23:29;;;;;;;;;;;;;;;26.13;47.92;97378.94;4201846;28;5959;-71
2023/08/11 11:25:32;;;;;;;;;;;;;;;26.15;47.70;97384.09;4205625;28;5712;-73
2023/08/11 11:27:41;;;;;;;;;;;;;;;26.15;47.77;97381.38;4208167;28;5695;-70
2023/08/11 11:29:44;;;;;;;;;;;;;;;26.15;47.79;97386.78;4204910;28;5784;-70
2023/08/11 11:31:47;;;;;;;;;;;;;;;26.17;47.61;97383.84;4207273;28;7204;-74
2023/08/11 11:33:51;;;;;;;;;;;;;;;26.18;47.95;97380.03;4204716;28;5623;-71
2023/08/11 11:35:54;;;;;;;;;;;;;;;26.18;47.70;97380.84;4206383;28;5695;-73
2023/08/11 11:37:58;;;;;;;;;;;;;;;26.19;47.91;97376.22;4208217;28;5640;-70
2023/08/11 11:40:06;;;;;;;;;;;;;;;26.21;47.65;97376.75;4207609;28;5613;-72
2023/08/11 11:42:10;;;;;;;;;;;;;;;26.22;47.69;97375.66;4216682;28;6798;-75
2023/08/11 11:44:15;;;;;;;;;;;;;;;26.22;47.65;97378.38;4209012;28;6434;-73
2023/08/11 11:46:19;;;;;;;;;;;;;;;26.23;47.90;97374.56;4216107;28;5593;-74
2023/08/11 11:48:23;;;;;;;;;;;;;;;26.24;47.84;97368.06;4212602;28;5607;-72
2023/08/11 11:50:27;;;;;;;;;;;;;;;26.25;47.68;97372.38;4203660;28;5608;-68
2023/08/11 11:52:30;;;;;;;;;;;;;;;26.27;47.95;97375.63;4201034;28;5782;-71
2023/08/11 11:54:33;;;;;;;;;;;;;;;26.28;47.93;97371.84;4199537;28;5608;-74
2023/08/11 11:56:38;;;;;;;;;;;;;;;26.29;47.71;97370.75;4203760;28;5829;-76
2023/08/11 11:58:52;;;;;;;;;;;;;;;26.31;47.72;97374.00;4200512;28;6637;-70
2023/08/11 12:00:55;;;;;;;;;;;;;;;26.31;47.67;97374.00;4205007;28;5611;-71
2023/08/11 12:02:59;;;;;;;;;;;;;;;26.33;47.68;97366.38;4201330;28;5612;-73
2023/08/11 12:05:04;;;;;;;;;;;;;;;26.36;47.71;97371.25;4209040;28;5751;-70
2023/08/11 12:07:08;;;;;;;;;;;;;;;26.37;47.60;97372.88;4209367;28;5624;-73
2023/08/11 12:09:13;;;;;;;;;;;;;;;26.39;47.46;97365.31;4201433;28;5647;-78
2023/08/11 12:11:22;;;;;;;;;;;;;;;26.39;47.59;97363.41;4208321;28;5612;-82
2023/08/11 12:13:27;;;;;;;;;;;;;;;26.40;47.63;97365.03;4217510;28;6861;-81
2023/08/11 12:15:32;;;;;;;;;;;;;;;26.40;47.63;97358.78;4218459;28;6701;-85
2023/08/11 12:17:36;;;;;;;;;;;;;;;26.41;47.48;97357.69;4213825;28;5612;-80
2023/08/11 12:19:39;;;;;;;;;;;;;;;26.42;47.41;97359.31;4218004;28;5699;-79
2023/08/11 12:21:43;;;;;;;;;;;;;;;26.43;47.44;97360.13;4212270;28;5612;-77
2023/08/11 12:23:46;;;;;;;;;;;;;;;26.42;47.38;97356.59;4216340;28;5676;-73
2023/08/11 12:25:50;;;;;;;;;;;;;;;26.44;47.36;97354.41;4214466;28;5065;-76
2023/08/11 12:27:53;;;;;;;;;;;;;;;26.45;47.48;97356.03;4210412;28;5608;-76
2023/08/11 12:29:58;;;;;;;;;;;;;;;26.47;47.32;97358.47;4215613;28;5620;-70
2023/08/11 12:32:01;;;;;;;;;;;;;;;26.50;47.28;97349.75;4215715;28;6488;-75
2023/08/11 12:34:04;;;;;;;;;;;;;;;26.51;46.95;97351.41;4217484;28;5609;-70
2023/08/11 12:36:07;;;;;;;;;;;;;;;26.53;47.05;97346.50;4216684;28;5613;-73
2023/08/11 12:38:12;;;;;;;;;;;;;;;26.55;46.94;97347.03;4216201;28;5613;-71
2023/08/11 12:40:14;;;;;;;;;;;;;;;26.58;46.59;97349.97;4216837;28;5848;-71
2023/08/11 12:42:17;;;;;;;;;;;;;;;26.62;46.65;97342.09;4217299;28;5608;-71
2023/08/11 12:44:20;;;;;;;;;;;;;;;26.61;46.51;97343.97;4216248;28;7660;-70
2023/08/11 12:46:24;;;;;;;;;;;;;;;26.61;46.64;97332.31;4217285;28;5613;-70
2023/08/11 12:48:28;;;;;;;;;;;;;;;26.60;46.40;97328.81;4217150;28;5617;-72
2023/08/11 12:50:31;;;;;;;;;;;;;;;26.62;46.56;97329.34;4216473;28;5161;-71
2023/08/11 12:52:34;;;;;;;;;;;;;;;26.61;46.57;97325.00;4214068;28;5765;-74
2023/08/11 12:54:37;;;;;;;;;;;;;;;26.63;46.57;97324.75;4209487;28;7579;-72